sensor_id;sensor_type;location;lat;lon;timestamp;pressure;altitude;pressure_sealevel;temperature;humidity
21100;BME280;10708;50.824;4.408;2022-10-16T00:01:22;100123.78;;;13.28;100.00
21100;BME280;10708;50.824;4.408;2022-10-16T00:06:26;100122.19;;;13.26;100.00
21100;BME280;10708;50.824;4.408;2022-10-16T00:11:30;100133.44;;;13.29;100.00
21100;BME280;10708;50.824;4.408;2022-10-16T00:16:35;100132.50;;;13.30;100.00
21100;BME280;10708;50.824;4.408;2022-10-16T00:21:38;100136.94;;;13.30;100.00
21100;BME280;10708;50.824;4.408;2022-10-16T00:26:40;100135.16;;;13.30;100.00
21100;BME280;10708;50.824;4.408;2022-10-16T00:31:44;100129.06;;;13.28;100.00
21100;BME280;10708;50.824;4.408;2022-10-16T00:36:46;100128.41;;;13.25;100.00
21100;BME280;10708;50.824;4.408;2022-10-16T00:41:51;100133.94;;;13.20;100.00
21100;BME280;10708;50.824;4.408;2022-10-16T00:46:55;100143.84;;;13.17;100.00
21100;BME280;10708;50.824;4.408;2022-10-16T00:51:58;100144.03;;;13.12;100.00
21100;BME280;10708;50.824;4.408;2022-10-16T00:57:04;100140.00;;;13.05;100.00
21100;BME280;10708;50.824;4.408;2022-10-16T01:02:11;100142.88;;;13.01;100.00
21100;BME280;10708;50.824;4.408;2022-10-16T01:07:20;100147.50;;;12.97;100.00
21100;BME280;10708;50.824;4.408;2022-10-16T01:12:32;100136.06;;;12.97;100.00
21100;BME280;10708;50.824;4.408;2022-10-16T01:17:42;100158.13;;;12.96;100.00
21100;BME280;10708;50.824;4.408;2022-10-16T01:22:57;100142.28;;;12.96;100.00
21100;BME280;10708;50.824;4.408;2022-10-16T01:28:05;100146.72;;;12.95;100.00
21100;BME280;10708;50.824;4.408;2022-10-16T01:33:17;100147.56;;;12.96;100.00
21100;BME280;10708;50.824;4.408;2022-10-16T01:38:26;100135.44;;;12.91;100.00
21100;BME280;10708;50.824;4.408;2022-10-16T01:43:35;100139.06;;;12.89;100.00
21100;BME280;10708;50.824;4.408;2022-10-16T01:48:39;100137.47;;;12.86;100.00
21100;BME280;10708;50.824;4.408;2022-10-16T01:53:46;100156.97;;;12.84;100.00
21100;BME280;10708;50.824;4.408;2022-10-16T01:58:54;100158.06;;;12.80;100.00
21100;BME280;10708;50.824;4.408;2022-10-16T02:04:02;100149.28;;;12.79;100.00
21100;BME280;10708;50.824;4.408;2022-10-16T02:09:05;100156.28;;;12.80;100.00
21100;BME280;10708;50.824;4.408;2022-10-16T02:14:09;100160.88;;;12.77;100.00
21100;BME280;10708;50.824;4.408;2022-10-16T02:19:12;100159.91;;;12.78;100.00
21100;BME280;10708;50.824;4.408;2022-10-16T02:24:19;100142.28;;;12.78;100.00
21100;BME280;10708;50.824;4.408;2022-10-16T02:29:27;100155.50;;;12.78;100.00
21100;BME280;10708;50.824;4.408;2022-10-16T02:34:32;100160.69;;;12.80;100.00
21100;BME280;10708;50.824;4.408;2022-10-16T02:39:34;100165.06;;;12.81;100.00
21100;BME280;10708;50.824;4.408;2022-10-16T02:44:38;100163.34;;;12.80;100.00
21100;BME280;10708;50.824;4.408;2022-10-16T02:49:41;100167.00;;;12.77;100.00
21100;BME280;10708;50.824;4.408;2022-10-16T02:54:43;100178.59;;;12.75;100.00
21100;BME280;10708;50.824;4.408;2022-10-16T02:59:46;100185.59;;;12.76;100.00
21100;BME280;10708;50.824;4.408;2022-10-16T03:04:49;100163.41;;;12.78;100.00
21100;BME280;10708;50.824;4.408;2022-10-16T03:09:51;100180.13;;;12.79;100.00
21100;BME280;10708;50.824;4.408;2022-10-16T03:14:55;100187.13;;;12.80;100.00
21100;BME280;10708;50.824;4.408;2022-10-16T03:19:58;100200.34;;;12.80;100.00
21100;BME280;10708;50.824;4.408;2022-10-16T03:25:00;100203.91;;;12.79;100.00
21100;BME280;10708;50.824;4.408;2022-10-16T03:30:04;100202.03;;;12.81;100.00
21100;BME280;10708;50.824;4.408;2022-10-16T03:35:07;100202.19;;;12.78;100.00
21100;BME280;10708;50.824;4.408;2022-10-16T03:40:10;100193.44;;;12.77;100.00
21100;BME280;10708;50.824;4.408;2022-10-16T03:45:14;100183.88;;;12.75;100.00
21100;BME280;10708;50.824;4.408;2022-10-16T03:50:16;100194.44;;;12.75;100.00
21100;BME280;10708;50.824;4.408;2022-10-16T03:55:19;100206.81;;;12.74;100.00
21100;BME280;10708;50.824;4.408;2022-10-16T04:00:22;100202.38;;;12.75;100.00
21100;BME280;10708;50.824;4.408;2022-10-16T04:05:25;100200.59;;;12.75;100.00
21100;BME280;10708;50.824;4.408;2022-10-16T04:10:27;100218.22;;;12.75;100.00
21100;BME280;10708;50.824;4.408;2022-10-16T04:15:31;100227.78;;;12.77;100.00
21100;BME280;10708;50.824;4.408;2022-10-16T04:20:33;100242.69;;;12.78;100.00
21100;BME280;10708;50.824;4.408;2022-10-16T04:25:35;100229.47;;;12.78;100.00
21100;BME280;10708;50.824;4.408;2022-10-16T04:30:39;100241.06;;;12.76;100.00
21100;BME280;10708;50.824;4.408;2022-10-16T04:35:41;100244.72;;;12.73;100.00
21100;BME280;10708;50.824;4.408;2022-10-16T04:40:44;100249.94;;;12.75;100.00
21100;BME280;10708;50.824;4.408;2022-10-16T04:45:47;100258.94;;;12.71;100.00
21100;BME280;10708;50.824;4.408;2022-10-16T04:50:51;100265.13;;;12.70;100.00
21100;BME280;10708;50.824;4.408;2022-10-16T04:55:53;100272.28;;;12.68;100.00
21100;BME280;10708;50.824;4.408;2022-10-16T05:00:58;100273.25;;;12.67;100.00
21100;BME280;10708;50.824;4.408;2022-10-16T05:06:00;100279.44;;;12.66;100.00
21100;BME280;10708;50.824;4.408;2022-10-16T05:11:04;100285.59;;;12.66;100.00
21100;BME280;10708;50.824;4.408;2022-10-16T05:16:08;100305.06;;;12.64;100.00
21100;BME280;10708;50.824;4.408;2022-10-16T05:21:10;100302.38;;;12.65;100.00
21100;BME280;10708;50.824;4.408;2022-10-16T05:26:13;100310.44;;;12.62;100.00
21100;BME280;10708;50.824;4.408;2022-10-16T05:31:17;100318.59;;;12.57;100.00
21100;BME280;10708;50.824;4.408;2022-10-16T05:36:19;100307.31;;;12.54;100.00
21100;BME280;10708;50.824;4.408;2022-10-16T05:41:21;100322.50;;;12.49;100.00
21100;BME280;10708;50.824;4.408;2022-10-16T05:46:27;100325.44;;;12.43;100.00
21100;BME280;10708;50.824;4.408;2022-10-16T05:51:30;100329.25;;;12.37;100.00
21100;BME280;10708;50.824;4.408;2022-10-16T05:56:32;100338.09;;;12.36;100.00
21100;BME280;10708;50.824;4.408;2022-10-16T06:01:35;100339.88;;;12.36;100.00
21100;BME280;10708;50.824;4.408;2022-10-16T06:06:38;100344.28;;;12.35;100.00
21100;BME280;10708;50.824;4.408;2022-10-16T06:11:40;100344.28;;;12.35;100.00
21100;BME280;10708;50.824;4.408;2022-10-16T06:16:44;100354.06;;;12.33;100.00
21100;BME280;10708;50.824;4.408;2022-10-16T06:21:46;100372.56;;;12.33;100.00
21100;BME280;10708;50.824;4.408;2022-10-16T06:26:49;100372.31;;;12.38;100.00
21100;BME280;10708;50.824;4.408;2022-10-16T06:31:52;100376.53;;;12.42;100.00
21100;BME280;10708;50.824;4.408;2022-10-16T06:36:55;100376.47;;;12.43;100.00
21100;BME280;10708;50.824;4.408;2022-10-16T06:41:56;100378.91;;;12.48;100.00
21100;BME280;10708;50.824;4.408;2022-10-16T06:47:00;100391.59;;;12.58;100.00
21100;BME280;10708;50.824;4.408;2022-10-16T06:52:03;100404.25;;;12.71;100.00
21100;BME280;10708;50.824;4.408;2022-10-16T06:57:05;100408.03;;;12.84;100.00
21100;BME280;10708;50.824;4.408;2022-10-16T07:02:10;100419.81;;;12.96;100.00
21100;BME280;10708;50.824;4.408;2022-10-16T07:07:12;100429.63;;;13.11;100.00
21100;BME280;10708;50.824;4.408;2022-10-16T07:12:14;100429.09;;;13.23;100.00
21100;BME280;10708;50.824;4.408;2022-10-16T07:17:18;100441.78;;;13.34;100.00
21100;BME280;10708;50.824;4.408;2022-10-16T07:22:20;100462.09;;;13.50;100.00
21100;BME280;10708;50.824;4.408;2022-10-16T07:27:23;100470.63;;;13.57;100.00
21100;BME280;10708;50.824;4.408;2022-10-16T07:32:27;100490.00;;;13.57;100.00
21100;BME280;10708;50.824;4.408;2022-10-16T07:37:29;100498.75;;;13.94;100.00
21100;BME280;10708;50.824;4.408;2022-10-16T07:42:31;100495.88;;;14.16;100.00
21100;BME280;10708;50.824;4.408;2022-10-16T07:47:34;100509.72;;;14.21;100.00
21100;BME280;10708;50.824;4.408;2022-10-16T07:52:37;100517.09;;;14.49;100.00
21100;BME280;10708;50.824;4.408;2022-10-16T07:57:39;100531.66;;;14.74;100.00
21100;BME280;10708;50.824;4.408;2022-10-16T08:02:45;100528.13;;;15.23;100.00
21100;BME280;10708;50.824;4.408;2022-10-16T08:07:48;100533.66;;;15.49;100.00
21100;BME280;10708;50.824;4.408;2022-10-16T08:12:50;100531.19;;;15.78;100.00
21100;BME280;10708;50.824;4.408;2022-10-16T08:17:59;100537.75;;;16.02;100.00
21100;BME280;10708;50.824;4.408;2022-10-16T08:23:02;100539.16;;;16.08;100.00
21100;BME280;10708;50.824;4.408;2022-10-16T08:28:05;100547.25;;;16.36;100.00
21100;BME280;10708;50.824;4.408;2022-10-16T08:33:08;100542.53;;;16.55;100.00
21100;BME280;10708;50.824;4.408;2022-10-16T08:38:10;100538.22;;;16.53;100.00
21100;BME280;10708;50.824;4.408;2022-10-16T08:43:24;100540.47;;;16.75;100.00
21100;BME280;10708;50.824;4.408;2022-10-16T08:48:37;100541.53;;;16.86;100.00
21100;BME280;10708;50.824;4.408;2022-10-16T08:53:44;100541.50;;;17.01;100.00
21100;BME280;10708;50.824;4.408;2022-10-16T08:58:49;100545.22;;;17.12;100.00
21100;BME280;10708;50.824;4.408;2022-10-16T09:04:04;100539.22;;;17.50;100.00
21100;BME280;10708;50.824;4.408;2022-10-16T09:09:18;100547.69;;;17.56;100.00
21100;BME280;10708;50.824;4.408;2022-10-16T09:14:36;100545.78;;;17.73;100.00
21100;BME280;10708;50.824;4.408;2022-10-16T09:19:47;100549.16;;;18.01;100.00
21100;BME280;10708;50.824;4.408;2022-10-16T09:24:54;100552.00;;;18.25;100.00
21100;BME280;10708;50.824;4.408;2022-10-16T09:30:00;100554.28;;;18.44;100.00
21100;BME280;10708;50.824;4.408;2022-10-16T09:35:04;100562.41;;;18.68;100.00
21100;BME280;10708;50.824;4.408;2022-10-16T09:40:13;100568.97;;;18.50;100.00
21100;BME280;10708;50.824;4.408;2022-10-16T09:45:26;100569.53;;;18.02;100.00
21100;BME280;10708;50.824;4.408;2022-10-16T09:50:30;100581.41;;;17.84;100.00
21100;BME280;10708;50.824;4.408;2022-10-16T09:55:33;100588.16;;;17.34;100.00
21100;BME280;10708;50.824;4.408;2022-10-16T10:00:35;100577.78;;;17.30;100.00
21100;BME280;10708;50.824;4.408;2022-10-16T10:05:48;100598.25;;;17.15;100.00
21100;BME280;10708;50.824;4.408;2022-10-16T10:10:51;100595.94;;;17.09;100.00
21100;BME280;10708;50.824;4.408;2022-10-16T10:15:58;100597.94;;;17.20;100.00
21100;BME280;10708;50.824;4.408;2022-10-16T10:21:03;100602.50;;;17.18;100.00
21100;BME280;10708;50.824;4.408;2022-10-16T10:26:13;100596.81;;;16.95;100.00
21100;BME280;10708;50.824;4.408;2022-10-16T10:31:21;100599.94;;;16.74;100.00
21100;BME280;10708;50.824;4.408;2022-10-16T10:36:32;100602.03;;;16.83;100.00
21100;BME280;10708;50.824;4.408;2022-10-16T10:42:12;100617.03;;;16.98;100.00
21100;BME280;10708;50.824;4.408;2022-10-16T10:47:28;100616.38;;;16.94;100.00
21100;BME280;10708;50.824;4.408;2022-10-16T10:52:42;100610.19;;;17.08;100.00
21100;BME280;10708;50.824;4.408;2022-10-16T10:58:18;100604.50;;;17.28;100.00
21100;BME280;10708;50.824;4.408;2022-10-16T11:03:35;100603.63;;;17.28;100.00
21100;BME280;10708;50.824;4.408;2022-10-16T11:08:48;100613.31;;;17.29;100.00
21100;BME280;10708;50.824;4.408;2022-10-16T11:13:55;100619.59;;;17.42;100.00
21100;BME280;10708;50.824;4.408;2022-10-16T11:19:04;100608.00;;;17.43;100.00
21100;BME280;10708;50.824;4.408;2022-10-16T11:24:16;100596.88;;;17.65;100.00
21100;BME280;10708;50.824;4.408;2022-10-16T11:29:25;100599.56;;;17.78;100.00
21100;BME280;10708;50.824;4.408;2022-10-16T11:34:34;100603.50;;;17.99;100.00
21100;BME280;10708;50.824;4.408;2022-10-16T11:39:42;100593.81;;;17.98;100.00
21100;BME280;10708;50.824;4.408;2022-10-16T11:44:53;100591.84;;;17.87;100.00
21100;BME280;10708;50.824;4.408;2022-10-16T11:49:59;100601.25;;;17.93;100.00
21100;BME280;10708;50.824;4.408;2022-10-16T11:55:14;100596.63;;;17.82;100.00
21100;BME280;10708;50.824;4.408;2022-10-16T12:00:23;100591.56;;;17.92;100.00
21100;BME280;10708;50.824;4.408;2022-10-16T12:05:35;100595.66;;;18.10;100.00
21100;BME280;10708;50.824;4.408;2022-10-16T12:10:44;100604.47;;;18.37;100.00
21100;BME280;10708;50.824;4.408;2022-10-16T12:15:47;100612.88;;;18.58;100.00
21100;BME280;10708;50.824;4.408;2022-10-16T12:20:55;100594.00;;;18.61;100.00
21100;BME280;10708;50.824;4.408;2022-10-16T12:26:01;100601.03;;;18.62;100.00
21100;BME280;10708;50.824;4.408;2022-10-16T12:31:06;100626.00;;;18.61;100.00
21100;BME280;10708;50.824;4.408;2022-10-16T12:36:12;100616.34;;;18.86;100.00
21100;BME280;10708;50.824;4.408;2022-10-16T12:41:26;100612.06;;;18.96;100.00
21100;BME280;10708;50.824;4.408;2022-10-16T12:46:38;100626.97;;;18.98;100.00
21100;BME280;10708;50.824;4.408;2022-10-16T12:51:42;100619.84;;;19.11;100.00
21100;BME280;10708;50.824;4.408;2022-10-16T12:56:55;100624.88;;;19.16;100.00
21100;BME280;10708;50.824;4.408;2022-10-16T13:02:18;100635.09;;;19.09;100.00
21100;BME280;10708;50.824;4.408;2022-10-16T13:07:49;100628.91;;;19.09;100.00
21100;BME280;10708;50.824;4.408;2022-10-16T13:13:13;100623.81;;;19.06;100.00
21100;BME280;10708;50.824;4.408;2022-10-16T13:18:22;100631.56;;;19.22;100.00
21100;BME280;10708;50.824;4.408;2022-10-16T13:23:33;100612.47;;;19.15;100.00
21100;BME280;10708;50.824;4.408;2022-10-16T13:28:39;100612.25;;;19.18;100.00
21100;BME280;10708;50.824;4.408;2022-10-16T13:33:45;100600.19;;;19.12;100.00
21100;BME280;10708;50.824;4.408;2022-10-16T13:38:59;100614.25;;;19.27;100.00
21100;BME280;10708;50.824;4.408;2022-10-16T13:44:07;100619.28;;;19.32;100.00
21100;BME280;10708;50.824;4.408;2022-10-16T13:49:14;100592.69;;;19.17;100.00
21100;BME280;10708;50.824;4.408;2022-10-16T13:54:16;100593.78;;;19.02;100.00
21100;BME280;10708;50.824;4.408;2022-10-16T13:59:25;100605.84;;;18.83;100.00
21100;BME280;10708;50.824;4.408;2022-10-16T14:04:32;100605.88;;;18.95;100.00
21100;BME280;10708;50.824;4.408;2022-10-16T14:09:39;100598.81;;;18.82;100.00
21100;BME280;10708;50.824;4.408;2022-10-16T14:14:45;100615.69;;;18.82;100.00
21100;BME280;10708;50.824;4.408;2022-10-16T14:19:53;100604.78;;;18.72;100.00
21100;BME280;10708;50.824;4.408;2022-10-16T14:25:20;100607.88;;;18.79;100.00
21100;BME280;10708;50.824;4.408;2022-10-16T14:30:29;100602.97;;;18.73;100.00
21100;BME280;10708;50.824;4.408;2022-10-16T14:35:37;100597.84;;;18.70;100.00
21100;BME280;10708;50.824;4.408;2022-10-16T14:40:47;100587.59;;;18.64;100.00
21100;BME280;10708;50.824;4.408;2022-10-16T14:45:53;100596.31;;;18.53;100.00
21100;BME280;10708;50.824;4.408;2022-10-16T14:50:56;100599.69;;;18.42;100.00
21100;BME280;10708;50.824;4.408;2022-10-16T14:56:06;100586.03;;;18.34;100.00
21100;BME280;10708;50.824;4.408;2022-10-16T15:01:10;100588.81;;;18.33;100.00
21100;BME280;10708;50.824;4.408;2022-10-16T15:06:13;100595.59;;;18.24;100.00
21100;BME280;10708;50.824;4.408;2022-10-16T15:11:18;100596.75;;;18.20;100.00
21100;BME280;10708;50.824;4.408;2022-10-16T15:16:22;100592.00;;;18.25;100.00
21100;BME280;10708;50.824;4.408;2022-10-16T15:21:26;100570.31;;;18.17;100.00
21100;BME280;10708;50.824;4.408;2022-10-16T15:26:29;100584.03;;;18.11;100.00
21100;BME280;10708;50.824;4.408;2022-10-16T15:31:34;100578.06;;;18.07;100.00
21100;BME280;10708;50.824;4.408;2022-10-16T15:36:37;100558.97;;;18.01;100.00
21100;BME280;10708;50.824;4.408;2022-10-16T15:41:44;100565.44;;;17.97;100.00
21100;BME280;10708;50.824;4.408;2022-10-16T15:46:54;100561.91;;;17.84;100.00
21100;BME280;10708;50.824;4.408;2022-10-16T15:51:58;100560.13;;;17.70;100.00
21100;BME280;10708;50.824;4.408;2022-10-16T15:57:00;100556.94;;;17.65;100.00
21100;BME280;10708;50.824;4.408;2022-10-16T16:02:07;100555.69;;;17.56;100.00
21100;BME280;10708;50.824;4.408;2022-10-16T16:07:10;100544.78;;;17.47;100.00
21100;BME280;10708;50.824;4.408;2022-10-16T16:12:13;100539.56;;;17.31;100.00
21100;BME280;10708;50.824;4.408;2022-10-16T16:17:26;100532.72;;;17.27;100.00
21100;BME280;10708;50.824;4.408;2022-10-16T16:22:29;100550.34;;;17.15;100.00
21100;BME280;10708;50.824;4.408;2022-10-16T16:27:31;100556.63;;;17.14;100.00
21100;BME280;10708;50.824;4.408;2022-10-16T16:32:36;100556.03;;;17.09;100.00
21100;BME280;10708;50.824;4.408;2022-10-16T16:37:38;100552.25;;;16.99;100.00
21100;BME280;10708;50.824;4.408;2022-10-16T16:42:41;100547.41;;;16.91;100.00
21100;BME280;10708;50.824;4.408;2022-10-16T16:47:44;100552.06;;;16.74;100.00
21100;BME280;10708;50.824;4.408;2022-10-16T16:52:46;100552.63;;;16.65;100.00
21100;BME280;10708;50.824;4.408;2022-10-16T16:57:49;100587.28;;;16.63;100.00
21100;BME280;10708;50.824;4.408;2022-10-16T17:02:52;100658.91;;;16.66;100.00
21100;BME280;10708;50.824;4.408;2022-10-16T17:07:55;100617.22;;;16.51;100.00
21100;BME280;10708;50.824;4.408;2022-10-16T17:12:57;100633.16;;;16.21;100.00
21100;BME280;10708;50.824;4.408;2022-10-16T17:18:01;100636.97;;;16.01;100.00
21100;BME280;10708;50.824;4.408;2022-10-16T17:23:03;100641.44;;;15.85;100.00
21100;BME280;10708;50.824;4.408;2022-10-16T17:28:06;100667.88;;;15.71;100.00
21100;BME280;10708;50.824;4.408;2022-10-16T17:33:12;100689.47;;;15.65;100.00
21100;BME280;10708;50.824;4.408;2022-10-16T17:38:14;100660.59;;;15.59;100.00
21100;BME280;10708;50.824;4.408;2022-10-16T17:43:17;100667.03;;;15.55;100.00
21100;BME280;10708;50.824;4.408;2022-10-16T17:48:20;100656.97;;;15.44;100.00
21100;BME280;10708;50.824;4.408;2022-10-16T17:53:24;100661.66;;;15.39;100.00
21100;BME280;10708;50.824;4.408;2022-10-16T17:58:26;100659.25;;;15.34;100.00
21100;BME280;10708;50.824;4.408;2022-10-16T18:03:29;100669.09;;;15.32;100.00
21100;BME280;10708;50.824;4.408;2022-10-16T18:08:32;100676.97;;;15.34;100.00
21100;BME280;10708;50.824;4.408;2022-10-16T18:13:36;100674.47;;;15.31;100.00
21100;BME280;10708;50.824;4.408;2022-10-16T18:18:42;100676.13;;;15.33;100.00
21100;BME280;10708;50.824;4.408;2022-10-16T18:23:45;100653.16;;;15.32;100.00
21100;BME280;10708;50.824;4.408;2022-10-16T18:28:51;100658.91;;;15.25;100.00
21100;BME280;10708;50.824;4.408;2022-10-16T18:33:55;100665.44;;;15.18;100.00
21100;BME280;10708;50.824;4.408;2022-10-16T18:39:00;100681.47;;;15.16;100.00
21100;BME280;10708;50.824;4.408;2022-10-16T18:44:03;100703.63;;;15.15;100.00
21100;BME280;10708;50.824;4.408;2022-10-16T18:49:08;100705.16;;;15.19;100.00
21100;BME280;10708;50.824;4.408;2022-10-16T18:54:11;100703.28;;;15.21;100.00
21100;BME280;10708;50.824;4.408;2022-10-16T18:59:13;100686.38;;;15.24;100.00
21100;BME280;10708;50.824;4.408;2022-10-16T19:04:17;100683.72;;;15.24;100.00
21100;BME280;10708;50.824;4.408;2022-10-16T19:09:22;100675.97;;;15.19;100.00
21100;BME280;10708;50.824;4.408;2022-10-16T19:14:25;100679.81;;;15.13;100.00
21100;BME280;10708;50.824;4.408;2022-10-16T19:19:31;100667.50;;;15.12;100.00
21100;BME280;10708;50.824;4.408;2022-10-16T19:24:33;100677.25;;;15.12;100.00
21100;BME280;10708;50.824;4.408;2022-10-16T19:29:36;100665.84;;;15.10;100.00
21100;BME280;10708;50.824;4.408;2022-10-16T19:34:39;100658.91;;;15.07;100.00
21100;BME280;10708;50.824;4.408;2022-10-16T19:39:42;100672.50;;;15.01;100.00
21100;BME280;10708;50.824;4.408;2022-10-16T19:44:44;100657.88;;;14.94;100.00
21100;BME280;10708;50.824;4.408;2022-10-16T19:49:48;100658.16;;;14.88;100.00
21100;BME280;10708;50.824;4.408;2022-10-16T19:54:53;100654.19;;;14.80;100.00
21100;BME280;10708;50.824;4.408;2022-10-16T19:59:57;100661.28;;;14.79;100.00
21100;BME280;10708;50.824;4.408;2022-10-16T20:05:01;100645.38;;;14.79;100.00
21100;BME280;10708;50.824;4.408;2022-10-16T20:10:04;100642.50;;;14.84;100.00
21100;BME280;10708;50.824;4.408;2022-10-16T20:15:07;100632.75;;;14.84;100.00
21100;BME280;10708;50.824;4.408;2022-10-16T20:20:11;100630.13;;;14.84;100.00
21100;BME280;10708;50.824;4.408;2022-10-16T20:25:14;100639.22;;;14.78;100.00
21100;BME280;10708;50.824;4.408;2022-10-16T20:30:16;100637.75;;;14.73;100.00
21100;BME280;10708;50.824;4.408;2022-10-16T20:35:21;100637.22;;;14.66;100.00
21100;BME280;10708;50.824;4.408;2022-10-16T20:40:24;100641.91;;;14.61;100.00
21100;BME280;10708;50.824;4.408;2022-10-16T20:45:26;100633.47;;;14.53;100.00
21100;BME280;10708;50.824;4.408;2022-10-16T20:50:30;100625.06;;;14.45;100.00
21100;BME280;10708;50.824;4.408;2022-10-16T20:55:35;100627.13;;;14.38;100.00
21100;BME280;10708;50.824;4.408;2022-10-16T21:00:38;100614.25;;;14.31;100.00
21100;BME280;10708;50.824;4.408;2022-10-16T21:05:41;100623.31;;;14.27;100.00
21100;BME280;10708;50.824;4.408;2022-10-16T21:10:44;100622.69;;;14.22;100.00
21100;BME280;10708;50.824;4.408;2022-10-16T21:15:46;100622.06;;;14.17;100.00
21100;BME280;10708;50.824;4.408;2022-10-16T21:20:50;100619.47;;;14.15;100.00
21100;BME280;10708;50.824;4.408;2022-10-16T21:25:52;100621.19;;;14.16;100.00
21100;BME280;10708;50.824;4.408;2022-10-16T21:30:54;100616.59;;;14.20;100.00
21100;BME280;10708;50.824;4.408;2022-10-16T21:35:58;100618.22;;;14.22;100.00
21100;BME280;10708;50.824;4.408;2022-10-16T21:41:10;100627.50;;;14.31;100.00
21100;BME280;10708;50.824;4.408;2022-10-16T21:46:16;100615.84;;;14.35;100.00
21100;BME280;10708;50.824;4.408;2022-10-16T21:51:25;100611.31;;;14.37;100.00
21100;BME280;10708;50.824;4.408;2022-10-16T21:56:28;100606.09;;;14.35;100.00
21100;BME280;10708;50.824;4.408;2022-10-16T22:01:31;100603.53;;;14.34;100.00
21100;BME280;10708;50.824;4.408;2022-10-16T22:06:38;100602.75;;;14.32;100.00
21100;BME280;10708;50.824;4.408;2022-10-16T22:11:41;100602.53;;;14.36;100.00
21100;BME280;10708;50.824;4.408;2022-10-16T22:16:48;100604.22;;;14.37;100.00
21100;BME280;10708;50.824;4.408;2022-10-16T22:21:53;100608.38;;;14.43;100.00
21100;BME280;10708;50.824;4.408;2022-10-16T22:26:57;100602.75;;;14.49;100.00
21100;BME280;10708;50.824;4.408;2022-10-16T22:31:59;100611.41;;;14.53;100.00
21100;BME280;10708;50.824;4.408;2022-10-16T22:37:03;100616.31;;;14.60;100.00
21100;BME280;10708;50.824;4.408;2022-10-16T22:42:05;100604.72;;;14.63;100.00
21100;BME280;10708;50.824;4.408;2022-10-16T22:47:07;100604.56;;;14.66;100.00
21100;BME280;10708;50.824;4.408;2022-10-16T22:52:11;100598.22;;;14.68;100.00
21100;BME280;10708;50.824;4.408;2022-10-16T22:57:13;100592.84;;;14.70;100.00
21100;BME280;10708;50.824;4.408;2022-10-16T23:02:15;100594.63;;;14.69;100.00
21100;BME280;10708;50.824;4.408;2022-10-16T23:07:19;100584.91;;;14.70;100.00
21100;BME280;10708;50.824;4.408;2022-10-16T23:12:21;100593.78;;;14.69;100.00
21100;BME280;10708;50.824;4.408;2022-10-16T23:17:25;100597.47;;;14.66;100.00
21100;BME280;10708;50.824;4.408;2022-10-16T23:22:29;100589.66;;;14.63;100.00
21100;BME280;10708;50.824;4.408;2022-10-16T23:27:31;100585.16;;;14.65;100.00
21100;BME280;10708;50.824;4.408;2022-10-16T23:32:33;100585.22;;;14.64;100.00
21100;BME280;10708;50.824;4.408;2022-10-16T23:37:37;100581.72;;;14.63;100.00
21100;BME280;10708;50.824;4.408;2022-10-16T23:42:39;100578.81;;;14.68;100.00
21100;BME280;10708;50.824;4.408;2022-10-16T23:47:41;100568.31;;;14.66;100.00
21100;BME280;10708;50.824;4.408;2022-10-16T23:52:44;100570.78;;;14.69;100.00
21100;BME280;10708;50.824;4.408;2022-10-16T23:57:46;100570.63;;;14.72;100.00
